Time;durP1;ratioP1;P1;durP2;ratioP2;P2;SDS_P1;SDS_P2;PMS_P1;PMS_P2;Temp;Humidity;BMP_temperature;BMP_pressure;BME280_temperature;BME280_humidity;BME280_pressure;Samples;Min_cycle;Max_cycle;Signal;HPM_P1;HPM_P2
2023/07/20 00:02:39;;;;;;;11.63;4.50;;;20.80;99.90;;;;;;21095869;28;20234;-63
2023/07/20 00:12:40;;;;;;;8.53;4.03;;;20.70;99.90;;;;;;21084145;28;20234;-62
2023/07/20 00:22:42;;;;;;;10.07;3.77;;;20.60;99.90;;;;;;21082956;28;20317;-63
2023/07/20 00:32:44;;;;;;;7.67;3.47;;;20.80;99.90;;;;;;21082715;28;20212;-63
2023/07/20 00:42:46;;;;;;;6.93;3.00;;;20.70;99.90;;;;;;21093370;28;20742;-64
2023/07/20 00:52:49;;;;;;;5.53;3.03;;;20.60;99.90;;;;;;21092688;28;20248;-62
2023/07/20 01:02:51;;;;;;;11.07;3.70;;;20.50;99.80;;;;;;21080267;28;20700;-62
2023/07/20 01:12:54;;;;;;;10.03;3.10;;;20.40;99.10;;;;;;21079601;28;20273;-62
2023/07/20 01:23:15;;;;;;;11.20;3.40;;;20.40;99.30;;;;;;21079077;28;20232;-62
2023/07/20 01:33:18;;;;;;;6.10;3.30;;;20.30;98.90;;;;;;21078718;28;20214;-62
2023/07/20 01:43:20;;;;;;;8.80;2.87;;;20.20;99.00;;;;;;21089419;28;20695;-62
2023/07/20 01:53:22;;;;;;;13.50;3.30;;;20.20;98.90;;;;;;21089658;28;20293;-62
2023/07/20 02:03:25;;;;;;;15.00;3.40;;;20.10;98.80;;;;;;21077670;28;20243;-62
2023/07/20 02:13:27;;;;;;;10.33;3.00;;;20.00;98.50;;;;;;21077005;28;20234;-62
2023/07/20 02:23:29;;;;;;;12.17;3.13;;;19.80;98.40;;;;;;21077172;28;20593;-63
2023/07/20 02:33:30;;;;;;;6.97;3.00;;;19.70;98.40;;;;;;21090347;28;20647;-63
2023/07/20 02:43:32;;;;;;;8.43;3.60;;;19.70;98.30;;;;;;21090963;28;20239;-62
2023/07/20 02:53:34;;;;;;;6.17;2.80;;;19.70;98.60;;;;;;21148470;28;20205;-62
2023/07/20 03:03:38;;;;;;;8.67;2.97;;;19.50;97.80;;;;;;21174051;28;20328;-63
2023/07/20 03:13:42;;;;;;;11.00;3.93;;;;;;;;;;21173031;28;20243;-61
2023/07/20 03:23:44;;;;;;;7.47;3.17;;;19.30;98.10;;;;;;21172728;28;20318;-61
2023/07/20 03:33:46;;;;;;;8.60;4.27;;;19.20;98.10;;;;;;21156090;28;20204;-61
2023/07/20 03:43:48;;;;;;;4.93;2.90;;;19.10;98.20;;;;;;21141681;28;20273;-61
2023/07/20 03:53:50;;;;;;;6.10;2.97;;;19.00;98.20;;;;;;21086045;28;20220;-61
2023/07/20 04:03:52;;;;;;;7.43;3.37;;;19.00;98.20;;;;;;21084581;28;20330;-64
2023/07/20 04:13:56;;;;;;;17.77;4.07;;;;;;;;;;21103516;28;20256;-62
2023/07/20 04:23:58;;;;;;;7.77;3.10;;;19.00;98.30;;;;;;21167783;28;20322;-66
2023/07/20 04:34:00;;;;;;;10.47;3.37;;;19.00;98.00;;;;;;21166773;28;20236;-63
2023/07/20 04:44:02;;;;;;;8.93;3.23;;;19.10;97.60;;;;;;21116307;28;20318;-61
2023/07/20 04:54:04;;;;;;;8.63;3.30;;;19.20;97.10;;;;;;21081246;28;20211;-62
2023/07/20 05:04:06;;;;;;;5.87;3.07;;;19.40;96.50;;;;;;21079265;28;20235;-62
2023/07/20 05:14:09;;;;;;;6.43;3.60;;;19.40;96.30;;;;;;21079297;28;20261;-64
2023/07/20 05:24:11;;;;;;;14.30;4.30;;;19.50;96.50;;;;;;21109984;28;20325;-63
2023/07/20 05:34:14;;;;;;;9.53;3.90;;;19.40;95.70;;;;;;21162869;28;20622;-64
2023/07/20 05:44:16;;;;;;;7.50;3.47;;;19.40;95.60;;;;;;21162327;28;20324;-68
2023/07/20 05:54:17;;;;;;;11.43;4.53;;;19.60;95.30;;;;;;21162359;28;20231;-65
2023/07/20 06:04:19;;;;;;;7.00;3.23;;;19.80;95.00;;;;;;21161499;28;20228;-66
2023/07/20 06:14:21;;;;;;;7.23;3.23;;;19.90;94.40;;;;;;21174793;28;20652;-65
2023/07/20 06:24:22;;;;;;;4.80;2.63;;;20.10;93.50;;;;;;21120330;28;20234;-66
2023/07/20 06:34:24;;;;;;;5.10;2.73;;;20.20;92.60;;;;;;21102656;28;20684;-66
2023/07/20 06:44:26;;;;;;;7.67;2.80;;;20.40;92.10;;;;;;21090636;28;20238;-65
2023/07/20 06:54:28;;;;;;;10.17;2.60;;;20.70;91.60;;;;;;21090442;28;20208;-68
2023/07/20 07:04:36;;;;;;;10.23;3.37;;;20.90;90.50;;;;;;21088701;28;20759;-65
2023/07/20 07:14:38;;;;;;;8.47;3.03;;;21.10;90.60;;;;;;21088131;28;20231;-69
2023/07/20 07:24:41;;;;;;;14.43;3.30;;;21.20;90.10;;;;;;21098117;28;20725;-69
2023/07/20 07:34:46;;;;;;;20.03;4.13;;;21.40;89.50;;;;;;21097978;28;20199;-69
2023/07/20 07:44:48;;;;;;;32.60;6.40;;;21.30;88.10;;;;;;21085823;28;20291;-69
2023/07/20 07:54:49;;;;;;;30.80;3.80;;;21.20;87.70;;;;;;21085527;28;20202;-69
2023/07/20 08:04:52;;;;;;;20.73;2.90;;;20.90;85.80;;;;;;21084054;28;20273;-69
2023/07/20 08:14:54;;;;;;;22.70;3.13;;;21.40;85.20;;;;;;21094914;28;20724;-65
2023/07/20 08:24:56;;;;;;;4.90;2.47;;;21.70;82.80;;;;;;21085427;28;20674;-65
2023/07/20 08:34:57;;;;;;;6.33;2.23;;;22.00;80.40;;;;;;21089981;28;20717;-67
2023/07/20 08:45:00;;;;;;;11.30;2.80;;;22.20;79.00;;;;;;21081290;28;20321;-69
2023/07/20 08:55:03;;;;;;;7.27;2.17;;;22.30;76.40;;;;;;21080595;28;20236;-65
2023/07/20 09:05:07;;;;;;;3.57;2.27;;;22.40;73.30;;;;;;21081163;28;20233;-67
2023/07/20 09:15:11;;;;;;;9.07;2.40;;;22.40;70.70;;;;;;21087951;28;20270;-66
2023/07/20 09:25:14;;;;;;;4.17;2.43;;;22.70;70.10;;;;;;21090179;28;20325;-68
2023/07/20 09:35:17;;;;;;;3.47;2.03;;;22.40;69.20;;;;;;21078116;28;20198;-66
2023/07/20 09:45:22;;;;;;;7.50;2.00;;;22.60;68.10;;;;;;21085361;28;20256;-68
2023/07/20 09:55:45;;;;;;;4.90;2.03;;;22.90;66.90;;;;;;21095838;28;20198;-66
2023/07/20 10:05:56;;;;;;;3.67;1.97;;;22.70;63.00;;;;;;21104321;28;20230;-65
2023/07/20 10:16:11;;;;;;;3.87;1.77;;;23.10;61.70;;;;;;21100672;28;20225;-66
2023/07/20 10:26:13;;;;;;;3.00;2.00;;;23.30;62.50;;;;;;21093347;28;20218;-68
2023/07/20 10:36:15;;;;;;;24.80;3.50;;;23.50;60.40;;;;;;21091888;28;20642;-66
2023/07/20 10:46:40;;;;;;;24.33;2.53;;;23.50;59.10;;;;;;21090839;28;20217;-66
2023/07/20 10:56:43;;;;;;;6.03;1.80;;;23.60;57.70;;;;;;21087738;28;20696;-68
2023/07/20 11:06:46;;;;;;;3.03;1.97;;;23.70;57.90;;;;;;21071321;28;20258;-69
2023/07/20 11:16:52;;;;;;;4.87;2.30;;;24.00;57.20;;;;;;21104614;28;20641;-68
2023/07/20 11:26:55;;;;;;;4.40;2.03;;;24.20;56.40;;;;;;21131075;28;20202;-66
2023/07/20 11:36:57;;;;;;;2.87;1.80;;;24.30;54.50;;;;;;21132527;28;20309;-64
2023/07/20 11:47:04;;;;;;;6.37;2.90;;;24.50;53.00;;;;;;21086013;28;20306;-66
2023/07/20 11:57:06;;;;;;;5.80;1.67;;;24.70;51.90;;;;;;21124600;28;20230;-63
2023/07/20 12:07:08;;;;;;;4.53;1.87;;;24.80;50.70;;;;;;21096031;28;20548;-63
2023/07/20 12:17:09;;;;;;;5.40;2.20;;;25.20;51.30;;;;;;21083462;28;20242;-72
2023/07/20 12:27:14;;;;;;;3.93;2.00;;;25.60;51.30;;;;;;21082120;28;20215;-69
2023/07/20 12:37:18;;;;;;;5.27;1.80;;;25.70;49.40;;;;;;21081407;28;20237;-66
2023/07/20 12:47:19;;;;;;;3.63;2.33;;;25.60;49.10;;;;;;21081479;28;20206;-68
2023/07/20 12:57:21;;;;;;;5.00;2.07;;;25.30;49.80;;;;;;21073570;28;20600;-65
2023/07/20 13:07:31;;;;;;;4.97;1.50;;;25.10;49.40;;;;;;21105629;28;20301;-66
2023/07/20 13:17:40;;;;;;;4.70;1.70;;;24.90;49.50;;;;;;21100556;28;20252;-66
2023/07/20 13:27:42;;;;;;;6.87;2.23;;;25.10;49.50;;;;;;21154159;28;20206;-70
2023/07/20 13:37:44;;;;;;;6.50;1.80;;;25.20;48.40;;;;;;21146737;28;20749;-63
2023/07/20 13:47:46;;;;;;;1.87;1.50;;;25.30;48.40;;;;;;21089423;28;20209;-70
2023/07/20 13:57:52;;;;;;;3.23;2.23;;;25.50;48.10;;;;;;21077571;28;20238;-69
2023/07/20 14:07:53;;;;;;;1.77;1.23;;;25.20;48.30;;;;;;21088930;28;20356;-68
2023/07/20 14:17:55;;;;;;;5.33;1.80;;;25.50;47.10;;;;;;21143637;28;20245;-64
2023/07/20 14:27:57;;;;;;;5.03;1.37;;;25.80;46.80;;;;;;21162592;28;20255;-65
2023/07/20 14:37:59;;;;;;;9.80;3.03;;;26.40;45.40;;;;;;21176472;28;20237;-67
2023/07/20 14:48:01;;;;;;;3.03;1.50;;;26.90;46.00;;;;;;21127396;28;20733;-64
2023/07/20 14:58:03;;;;;;;6.43;1.80;;;26.40;45.50;;;;;;21101411;28;20238;-62
2023/07/20 15:08:05;;;;;;;2.67;1.50;;;26.00;46.70;;;;;;21089387;28;20260;-68
2023/07/20 15:18:07;;;;;;;4.00;1.80;;;25.80;46.90;;;;;;21157206;28;20277;-67
2023/07/20 15:28:09;;;;;;;4.00;2.17;;;26.30;47.20;;;;;;21172737;28;20202;-73
2023/07/20 15:38:11;;;;;;;6.27;1.57;;;27.30;46.40;;;;;;21171674;28;20692;-68
2023/07/20 15:48:13;;;;;;;7.97;2.07;;;26.80;46.80;;;;;;21101250;28;20215;-68
2023/07/20 15:58:14;;;;;;;3.73;1.87;;;26.50;47.30;;;;;;21096333;28;20245;-67
2023/07/20 16:08:16;;;;;;;3.50;2.03;;;26.40;47.80;;;;;;21084825;28;20233;-73
2023/07/20 16:18:18;;;;;;;2.88;1.52;;;26.60;48.60;;;;;;21154128;28;20283;-74
2023/07/20 16:28:20;;;;;;;2.88;1.75;;;27.60;46.30;;;;;;21167333;28;20288;-74
2023/07/20 16:38:22;;;;;;;2.63;1.50;;;30.80;41.20;;;;;;21113998;28;20808;-74
2023/07/20 16:48:24;;;;;;;3.35;1.48;;;28.00;42.20;;;;;;21081674;28;20715;-72
2023/07/20 16:58:26;;;;;;;2.72;1.77;;;27.20;43.20;;;;;;21091321;28;20593;-72
2023/07/20 17:08:32;;;;;;;4.55;1.52;;;28.10;42.60;;;;;;21080513;28;20967;-73
2023/07/20 17:18:34;;;;;;;1.55;1.45;;;26.80;43.80;;;;;;21151331;28;20665;-69
2023/07/20 17:28:39;;;;;;;1.50;1.40;;;28.80;42.40;;;;;;21162436;28;20542;-70
2023/07/20 17:38:43;;;;;;;1.95;1.40;;;28.90;42.20;;;;;;21094900;28;20875;-68
2023/07/20 17:48:45;;;;;;;3.10;1.48;;;30.50;40.90;;;;;;21089532;28;20568;-69
2023/07/20 17:58:47;;;;;;;2.83;1.70;;;31.60;39.10;;;;;;21077615;28;20736;-66
2023/07/20 18:08:49;;;;;;;6.15;1.60;;;28.90;40.90;;;;;;21089360;28;20211;-64
2023/07/20 18:18:50;;;;;;;2.60;1.47;;;27.30;42.30;;;;;;21093196;28;20325;-64
2023/07/20 18:28:53;;;;;;;1.77;1.50;;;26.20;43.60;;;;;;21091048;28;20646;-64
2023/07/20 18:38:55;;;;;;;3.63;1.77;;;25.70;43.90;;;;;;21103528;28;20273;-63
2023/07/20 18:48:59;;;;;;;5.50;2.40;;;25.20;44.20;;;;;;21163239;28;20313;-63
2023/07/20 18:59:00;;;;;;;6.47;2.50;;;24.90;46.00;;;;;;21102398;28;20240;-62
2023/07/20 19:09:03;;;;;;;4.40;2.10;;;24.40;47.80;;;;;;21089079;28;20211;-64
2023/07/20 19:19:04;;;;;;;3.77;2.43;;;24.10;49.10;;;;;;21068625;28;20713;-63
2023/07/20 19:29:06;;;;;;;8.77;2.73;;;23.80;49.90;;;;;;21099143;28;20237;-70
2023/07/20 19:39:08;;;;;;;6.03;2.30;;;23.60;50.50;;;;;;21087144;28;20357;-64
2023/07/20 19:49:10;;;;;;;5.70;2.60;;;23.40;51.10;;;;;;21096899;28;20250;-61
2023/07/20 19:59:13;;;;;;;3.67;3.17;;;23.20;51.50;;;;;;21111741;28;20248;-61
2023/07/20 20:09:17;;;;;;;7.90;2.40;;;23.00;52.00;;;;;;21169558;28;20692;-63
2023/07/20 20:19:19;;;;;;;4.27;2.70;;;22.80;52.50;;;;;;21160512;28;20238;-62
2023/07/20 20:29:21;;;;;;;4.37;2.30;;;22.60;52.60;;;;;;21088621;28;20202;-63
2023/07/20 20:39:24;;;;;;;5.33;2.43;;;22.60;53.30;;;;;;21091653;28;20588;-64
2023/07/20 20:49:27;;;;;;;7.10;2.50;;;22.60;53.80;;;;;;21081838;28;20238;-65
2023/07/20 20:59:30;;;;;;;3.70;2.53;;;22.40;54.20;;;;;;21080767;28;20264;-68
2023/07/20 21:09:33;;;;;;;5.47;2.30;;;22.20;54.60;;;;;;21080279;28;20203;-70
2023/07/20 21:19:35;;;;;;;3.53;2.60;;;22.20;55.20;;;;;;21089084;28;20704;-69
2023/07/20 21:29:36;;;;;;;5.47;2.67;;;22.20;55.60;;;;;;21092918;28;20302;-69
2023/07/20 21:39:38;;;;;;;3.17;2.47;;;22.10;55.90;;;;;;21077943;28;20240;-69
2023/07/20 21:49:40;;;;;;;3.47;2.70;;;22.10;56.30;;;;;;21078795;28;20203;-69
2023/07/20 21:59:41;;;;;;;2.87;2.40;;;22.10;56.20;;;;;;21077897;28;20230;-60
2023/07/20 22:09:43;;;;;;;5.83;2.90;;;22.10;56.90;;;;;;21088929;28;20245;-60
2023/07/20 22:19:45;;;;;;;5.03;2.30;;;21.90;56.80;;;;;;21077083;28;20598;-60
2023/07/20 22:29:47;;;;;;;3.30;2.60;;;21.90;57.00;;;;;;21088046;28;20207;-59
2023/07/20 22:39:48;;;;;;;2.60;2.23;;;21.80;57.60;;;;;;21076211;28;20266;-62
2023/07/20 22:49:50;;;;;;;4.97;2.47;;;21.70;57.40;;;;;;21077761;28;20234;-61
2023/07/20 22:59:52;;;;;;;2.87;2.50;;;21.70;57.50;;;;;;21090306;28;20283;-61
2023/07/20 23:09:54;;;;;;;4.43;2.90;;;21.60;57.50;;;;;;21100882;28;20210;-61
2023/07/20 23:19:57;;;;;;;2.60;2.30;;;21.50;57.70;;;;;;21100249;28;20278;-64
2023/07/20 23:29:58;;;;;;;3.57;2.33;;;21.50;58.20;;;;;;21088010;28;20217;-59
2023/07/20 23:40:00;;;;;;;3.90;2.57;;;21.30;58.60;;;;;;21087315;28;20231;-59
2023/07/20 23:50:05;;;;;;;2.67;2.40;;;21.20;58.90;;;;;;21086828;28;20650;-61
